sensor_id;sensor_type;location;lat;lon;timestamp;pressure;altitude;pressure_sealevel;temperature;humidity
54872;BME280;43914;57.680;11.982;2024-02-21T00:01:41;100033.10;;;4.76;100.00
54872;BME280;43914;57.680;11.982;2024-02-21T00:04:07;100024.36;;;4.76;100.00
54872;BME280;43914;57.680;11.982;2024-02-21T00:06:32;100022.89;;;4.75;100.00
54872;BME280;43914;57.680;11.982;2024-02-21T00:08:58;100014.27;;;4.74;100.00
54872;BME280;43914;57.680;11.982;2024-02-21T00:11:23;100009.85;;;4.74;100.00
54872;BME280;43914;57.680;11.982;2024-02-21T00:13:49;100016.96;;;4.74;100.00
54872;BME280;43914;57.680;11.982;2024-02-21T00:16:16;100012.77;;;4.74;100.00
54872;BME280;43914;57.680;11.982;2024-02-21T00:18:45;100016.40;;;4.74;100.00
54872;BME280;43914;57.680;11.982;2024-02-21T00:21:10;100017.67;;;4.76;100.00
54872;BME280;43914;57.680;11.982;2024-02-21T00:23:40;100015.34;;;4.76;100.00
54872;BME280;43914;57.680;11.982;2024-02-21T00:26:06;100012.11;;;4.76;100.00
54872;BME280;43914;57.680;11.982;2024-02-21T00:28:32;100008.35;;;4.75;100.00
54872;BME280;43914;57.680;11.982;2024-02-21T00:30:58;100007.15;;;4.75;100.00
54872;BME280;43914;57.680;11.982;2024-02-21T00:33:23;99990.89;;;4.74;100.00
54872;BME280;43914;57.680;11.982;2024-02-21T00:35:49;99994.75;;;4.73;100.00
54872;BME280;43914;57.680;11.982;2024-02-21T00:38:14;99994.84;;;4.72;100.00
54872;BME280;43914;57.680;11.982;2024-02-21T00:40:39;99985.95;;;4.72;100.00
54872;BME280;43914;57.680;11.982;2024-02-21T00:43:05;99983.13;;;4.72;100.00
54872;BME280;43914;57.680;11.982;2024-02-21T00:45:30;99978.40;;;4.71;100.00
54872;BME280;43914;57.680;11.982;2024-02-21T00:47:56;99971.12;;;4.70;100.00
54872;BME280;43914;57.680;11.982;2024-02-21T00:50:21;99963.25;;;4.69;100.00
54872;BME280;43914;57.680;11.982;2024-02-21T00:52:47;99959.13;;;4.68;100.00
54872;BME280;43914;57.680;11.982;2024-02-21T00:55:13;99953.11;;;4.68;100.00
54872;BME280;43914;57.680;11.982;2024-02-21T00:57:39;99945.30;;;4.66;100.00
54872;BME280;43914;57.680;11.982;2024-02-21T01:00:05;99946.89;;;4.64;100.00
54872;BME280;43914;57.680;11.982;2024-02-21T01:02:31;99945.05;;;4.63;100.00
54872;BME280;43914;57.680;11.982;2024-02-21T01:05:00;99943.48;;;4.62;100.00
54872;BME280;43914;57.680;11.982;2024-02-21T01:07:25;99939.50;;;4.62;100.00
54872;BME280;43914;57.680;11.982;2024-02-21T01:09:51;99938.77;;;4.62;100.00
54872;BME280;43914;57.680;11.982;2024-02-21T01:12:17;99917.30;;;4.54;100.00
54872;BME280;43914;57.680;11.982;2024-02-21T01:14:42;99925.30;;;4.60;100.00
54872;BME280;43914;57.680;11.982;2024-02-21T01:17:08;99919.10;;;4.60;100.00
54872;BME280;43914;57.680;11.982;2024-02-21T01:19:33;99909.45;;;4.61;100.00
54872;BME280;43914;57.680;11.982;2024-02-21T01:21:59;99903.40;;;4.61;100.00
54872;BME280;43914;57.680;11.982;2024-02-21T01:24:24;99902.96;;;4.61;100.00
54872;BME280;43914;57.680;11.982;2024-02-21T01:26:50;99902.30;;;4.63;100.00
54872;BME280;43914;57.680;11.982;2024-02-21T01:29:15;99894.25;;;4.60;100.00
54872;BME280;43914;57.680;11.982;2024-02-21T01:31:41;99892.02;;;4.63;100.00
54872;BME280;43914;57.680;11.982;2024-02-21T01:34:06;99883.67;;;4.65;100.00
54872;BME280;43914;57.680;11.982;2024-02-21T01:36:32;99878.85;;;4.65;100.00
54872;BME280;43914;57.680;11.982;2024-02-21T01:38:57;99875.22;;;4.66;100.00
54872;BME280;43914;57.680;11.982;2024-02-21T01:41:23;99869.38;;;4.66;100.00
54872;BME280;43914;57.680;11.982;2024-02-21T01:43:48;99858.34;;;4.66;100.00
54872;BME280;43914;57.680;11.982;2024-02-21T01:46:14;99851.56;;;4.65;100.00
54872;BME280;43914;57.680;11.982;2024-02-21T01:48:39;99844.95;;;4.65;100.00
54872;BME280;43914;57.680;11.982;2024-02-21T01:51:05;99837.16;;;4.63;100.00
54872;BME280;43914;57.680;11.982;2024-02-21T01:53:35;99828.25;;;4.64;100.00
54872;BME280;43914;57.680;11.982;2024-02-21T01:56:02;99827.95;;;4.63;100.00
54872;BME280;43914;57.680;11.982;2024-02-21T01:58:28;99823.83;;;4.65;100.00
54872;BME280;43914;57.680;11.982;2024-02-21T02:00:56;99817.27;;;4.65;100.00
54872;BME280;43914;57.680;11.982;2024-02-21T02:03:23;99806.91;;;4.66;100.00
54872;BME280;43914;57.680;11.982;2024-02-21T02:05:51;99794.97;;;4.66;100.00
54872;BME280;43914;57.680;11.982;2024-02-21T02:08:18;99783.49;;;4.66;100.00
54872;BME280;43914;57.680;11.982;2024-02-21T02:10:44;99775.28;;;4.66;100.00
54872;BME280;43914;57.680;11.982;2024-02-21T02:13:11;99772.31;;;4.67;100.00
54872;BME280;43914;57.680;11.982;2024-02-21T02:15:41;99761.70;;;4.67;100.00
54872;BME280;43914;57.680;11.982;2024-02-21T02:18:07;99760.45;;;4.67;100.00
54872;BME280;43914;57.680;11.982;2024-02-21T02:20:33;99763.47;;;4.69;100.00
54872;BME280;43914;57.680;11.982;2024-02-21T02:22:59;99757.78;;;4.67;100.00
54872;BME280;43914;57.680;11.982;2024-02-21T02:25:26;99748.93;;;4.67;100.00
54872;BME280;43914;57.680;11.982;2024-02-21T02:27:51;99734.55;;;4.67;100.00
54872;BME280;43914;57.680;11.982;2024-02-21T02:30:17;99726.90;;;4.67;100.00
54872;BME280;43914;57.680;11.982;2024-02-21T02:32:45;99727.14;;;4.67;100.00
54872;BME280;43914;57.680;11.982;2024-02-21T02:35:12;99722.81;;;4.66;100.00
54872;BME280;43914;57.680;11.982;2024-02-21T02:37:37;99716.98;;;4.65;100.00
54872;BME280;43914;57.680;11.982;2024-02-21T02:40:06;99708.52;;;4.63;100.00
54872;BME280;43914;57.680;11.982;2024-02-21T02:42:32;99708.12;;;4.66;100.00
54872;BME280;43914;57.680;11.982;2024-02-21T02:44:57;99707.85;;;4.66;100.00
54872;BME280;43914;57.680;11.982;2024-02-21T02:47:23;99708.50;;;4.67;100.00
54872;BME280;43914;57.680;11.982;2024-02-21T02:49:48;99693.19;;;4.59;100.00
54872;BME280;43914;57.680;11.982;2024-02-21T02:52:16;99696.39;;;4.67;100.00
54872;BME280;43914;57.680;11.982;2024-02-21T02:54:43;99686.88;;;4.67;100.00
54872;BME280;43914;57.680;11.982;2024-02-21T02:57:09;99681.16;;;4.68;100.00
54872;BME280;43914;57.680;11.982;2024-02-21T02:59:35;99673.14;;;4.69;100.00
54872;BME280;43914;57.680;11.982;2024-02-21T03:02:00;99669.67;;;4.70;100.00
54872;BME280;43914;57.680;11.982;2024-02-21T03:04:26;99666.66;;;4.70;100.00
54872;BME280;43914;57.680;11.982;2024-02-21T03:06:51;99659.53;;;4.70;100.00
54872;BME280;43914;57.680;11.982;2024-02-21T03:09:17;99656.00;;;4.70;100.00
54872;BME280;43914;57.680;11.982;2024-02-21T03:11:43;99650.66;;;4.68;100.00
54872;BME280;43914;57.680;11.982;2024-02-21T03:14:10;99645.02;;;4.68;100.00
54872;BME280;43914;57.680;11.982;2024-02-21T03:16:36;99647.02;;;4.67;100.00
54872;BME280;43914;57.680;11.982;2024-02-21T03:19:01;99648.02;;;4.67;100.00
54872;BME280;43914;57.680;11.982;2024-02-21T03:21:27;99640.98;;;4.64;100.00
54872;BME280;43914;57.680;11.982;2024-02-21T03:23:52;99638.26;;;4.63;100.00
54872;BME280;43914;57.680;11.982;2024-02-21T03:26:17;99638.98;;;4.63;100.00
54872;BME280;43914;57.680;11.982;2024-02-21T03:28:44;99625.09;;;4.62;100.00
54872;BME280;43914;57.680;11.982;2024-02-21T03:31:12;99630.75;;;4.62;100.00
54872;BME280;43914;57.680;11.982;2024-02-21T03:33:42;99632.28;;;4.61;100.00
54872;BME280;43914;57.680;11.982;2024-02-21T03:36:14;99630.63;;;4.58;100.00
54872;BME280;43914;57.680;11.982;2024-02-21T03:38:40;99628.27;;;4.57;100.00
54872;BME280;43914;57.680;11.982;2024-02-21T03:41:06;99618.84;;;4.56;100.00
54872;BME280;43914;57.680;11.982;2024-02-21T03:43:31;99613.45;;;4.55;100.00
54872;BME280;43914;57.680;11.982;2024-02-21T03:45:57;99612.73;;;4.52;100.00
54872;BME280;43914;57.680;11.982;2024-02-21T03:48:22;99604.02;;;4.50;100.00
54872;BME280;43914;57.680;11.982;2024-02-21T03:50:48;99604.52;;;4.51;100.00
54872;BME280;43914;57.680;11.982;2024-02-21T03:53:13;99596.99;;;4.52;100.00
54872;BME280;43914;57.680;11.982;2024-02-21T03:55:38;99590.56;;;4.52;100.00
54872;BME280;43914;57.680;11.982;2024-02-21T03:58:04;99587.61;;;4.54;100.00
54872;BME280;43914;57.680;11.982;2024-02-21T04:00:29;99578.75;;;4.57;100.00
54872;BME280;43914;57.680;11.982;2024-02-21T04:02:55;99577.46;;;4.61;100.00
54872;BME280;43914;57.680;11.982;2024-02-21T04:05:21;99574.91;;;4.63;100.00
54872;BME280;43914;57.680;11.982;2024-02-21T04:07:46;99567.92;;;4.66;100.00
54872;BME280;43914;57.680;11.982;2024-02-21T04:10:12;99566.85;;;4.69;100.00
54872;BME280;43914;57.680;11.982;2024-02-21T04:12:37;99566.80;;;4.71;100.00
54872;BME280;43914;57.680;11.982;2024-02-21T04:15:04;99552.13;;;4.72;100.00
54872;BME280;43914;57.680;11.982;2024-02-21T04:17:30;99551.29;;;4.73;100.00
54872;BME280;43914;57.680;11.982;2024-02-21T04:20:02;99558.09;;;4.75;100.00
54872;BME280;43914;57.680;11.982;2024-02-21T04:22:31;99551.44;;;4.78;100.00
54872;BME280;43914;57.680;11.982;2024-02-21T04:24:59;99550.31;;;4.79;100.00
54872;BME280;43914;57.680;11.982;2024-02-21T04:27:25;99547.27;;;4.80;100.00
54872;BME280;43914;57.680;11.982;2024-02-21T04:29:50;99541.66;;;4.81;100.00
54872;BME280;43914;57.680;11.982;2024-02-21T04:32:16;99534.55;;;4.81;100.00
54872;BME280;43914;57.680;11.982;2024-02-21T04:34:41;99531.83;;;4.82;100.00
54872;BME280;43914;57.680;11.982;2024-02-21T04:37:07;99532.39;;;4.82;100.00
54872;BME280;43914;57.680;11.982;2024-02-21T04:39:32;99528.01;;;4.80;100.00
54872;BME280;43914;57.680;11.982;2024-02-21T04:41:58;99527.73;;;4.78;100.00
54872;BME280;43914;57.680;11.982;2024-02-21T04:44:23;99529.13;;;4.76;100.00
54872;BME280;43914;57.680;11.982;2024-02-21T04:46:49;99526.42;;;4.75;100.00
54872;BME280;43914;57.680;11.982;2024-02-21T04:49:14;99525.48;;;4.75;100.00
54872;BME280;43914;57.680;11.982;2024-02-21T04:51:41;99522.98;;;4.75;100.00
54872;BME280;43914;57.680;11.982;2024-02-21T04:54:06;99526.84;;;4.76;100.00
54872;BME280;43914;57.680;11.982;2024-02-21T04:56:31;99527.38;;;4.76;100.00
54872;BME280;43914;57.680;11.982;2024-02-21T04:58:57;99525.10;;;4.77;100.00
54872;BME280;43914;57.680;11.982;2024-02-21T05:01:22;99516.00;;;4.76;100.00
54872;BME280;43914;57.680;11.982;2024-02-21T05:03:48;99503.23;;;4.74;100.00
54872;BME280;43914;57.680;11.982;2024-02-21T05:06:13;99502.44;;;4.73;100.00
54872;BME280;43914;57.680;11.982;2024-02-21T05:08:40;99502.20;;;4.74;100.00
54872;BME280;43914;57.680;11.982;2024-02-21T05:11:05;99500.41;;;4.72;100.00
54872;BME280;43914;57.680;11.982;2024-02-21T05:13:31;99494.80;;;4.72;100.00
54872;BME280;43914;57.680;11.982;2024-02-21T05:15:56;99504.54;;;4.72;100.00
54872;BME280;43914;57.680;11.982;2024-02-21T05:18:22;99512.67;;;4.74;100.00
54872;BME280;43914;57.680;11.982;2024-02-21T05:20:48;99512.86;;;4.75;100.00
54872;BME280;43914;57.680;11.982;2024-02-21T05:23:13;99512.14;;;4.74;100.00
54872;BME280;43914;57.680;11.982;2024-02-21T05:25:38;99511.19;;;4.73;100.00
54872;BME280;43914;57.680;11.982;2024-02-21T05:28:04;99511.02;;;4.70;100.00
54872;BME280;43914;57.680;11.982;2024-02-21T05:30:31;99509.98;;;4.63;100.00
54872;BME280;43914;57.680;11.982;2024-02-21T05:32:57;99517.20;;;4.59;100.00
54872;BME280;43914;57.680;11.982;2024-02-21T05:35:27;99507.80;;;4.57;100.00
54872;BME280;43914;57.680;11.982;2024-02-21T05:37:53;99504.98;;;4.56;100.00
54872;BME280;43914;57.680;11.982;2024-02-21T05:40:18;99511.52;;;4.56;100.00
54872;BME280;43914;57.680;11.982;2024-02-21T05:42:45;99512.84;;;4.54;100.00
54872;BME280;43914;57.680;11.982;2024-02-21T05:45:11;99509.18;;;4.52;100.00
54872;BME280;43914;57.680;11.982;2024-02-21T05:47:36;99511.84;;;4.51;100.00
54872;BME280;43914;57.680;11.982;2024-02-21T05:50:02;99507.89;;;4.50;100.00
54872;BME280;43914;57.680;11.982;2024-02-21T05:52:27;99508.39;;;4.51;100.00
54872;BME280;43914;57.680;11.982;2024-02-21T05:54:53;99504.71;;;4.52;100.00
54872;BME280;43914;57.680;11.982;2024-02-21T05:57:18;99505.53;;;4.51;100.00
54872;BME280;43914;57.680;11.982;2024-02-21T05:59:44;99499.63;;;4.48;100.00
54872;BME280;43914;57.680;11.982;2024-02-21T06:02:09;99505.52;;;4.48;100.00
54872;BME280;43914;57.680;11.982;2024-02-21T06:04:35;99503.13;;;4.47;100.00
54872;BME280;43914;57.680;11.982;2024-02-21T06:07:01;99504.69;;;4.47;100.00
54872;BME280;43914;57.680;11.982;2024-02-21T06:09:27;99502.78;;;4.44;100.00
54872;BME280;43914;57.680;11.982;2024-02-21T06:11:53;99502.14;;;4.40;100.00
54872;BME280;43914;57.680;11.982;2024-02-21T06:14:21;99502.26;;;4.38;100.00
54872;BME280;43914;57.680;11.982;2024-02-21T06:16:47;99504.63;;;4.35;100.00
54872;BME280;43914;57.680;11.982;2024-02-21T06:19:12;99508.66;;;4.32;100.00
54872;BME280;43914;57.680;11.982;2024-02-21T06:21:38;99508.35;;;4.30;100.00
54872;BME280;43914;57.680;11.982;2024-02-21T06:24:04;99508.31;;;4.29;100.00
54872;BME280;43914;57.680;11.982;2024-02-21T06:26:29;99509.30;;;4.27;100.00
54872;BME280;43914;57.680;11.982;2024-02-21T06:28:55;99509.55;;;4.25;100.00
54872;BME280;43914;57.680;11.982;2024-02-21T06:31:20;99510.52;;;4.25;100.00
54872;BME280;43914;57.680;11.982;2024-02-21T06:33:46;99511.23;;;4.25;100.00
54872;BME280;43914;57.680;11.982;2024-02-21T06:36:11;99510.14;;;4.26;100.00
54872;BME280;43914;57.680;11.982;2024-02-21T06:38:36;99506.02;;;4.26;100.00
54872;BME280;43914;57.680;11.982;2024-02-21T06:41:02;99503.94;;;4.27;100.00
54872;BME280;43914;57.680;11.982;2024-02-21T06:43:28;99502.14;;;4.27;100.00
54872;BME280;43914;57.680;11.982;2024-02-21T06:45:54;99502.36;;;4.28;100.00
54872;BME280;43914;57.680;11.982;2024-02-21T06:48:20;99503.94;;;4.29;100.00
54872;BME280;43914;57.680;11.982;2024-02-21T06:50:45;99497.58;;;4.28;100.00
54872;BME280;43914;57.680;11.982;2024-02-21T06:53:11;99500.89;;;4.30;100.00
54872;BME280;43914;57.680;11.982;2024-02-21T06:55:37;99494.20;;;4.31;100.00
54872;BME280;43914;57.680;11.982;2024-02-21T06:58:03;99497.56;;;4.32;100.00
54872;BME280;43914;57.680;11.982;2024-02-21T07:00:29;99501.80;;;4.33;100.00
54872;BME280;43914;57.680;11.982;2024-02-21T07:02:54;99502.99;;;4.34;100.00
54872;BME280;43914;57.680;11.982;2024-02-21T07:05:20;99507.52;;;4.33;100.00
54872;BME280;43914;57.680;11.982;2024-02-21T07:07:46;99503.83;;;4.33;100.00
54872;BME280;43914;57.680;11.982;2024-02-21T07:10:11;99506.61;;;4.35;100.00
54872;BME280;43914;57.680;11.982;2024-02-21T07:12:37;99507.48;;;4.35;100.00
54872;BME280;43914;57.680;11.982;2024-02-21T07:15:07;99507.45;;;4.36;100.00
54872;BME280;43914;57.680;11.982;2024-02-21T07:17:33;99513.46;;;4.37;100.00
54872;BME280;43914;57.680;11.982;2024-02-21T07:19:58;99516.98;;;4.38;100.00
54872;BME280;43914;57.680;11.982;2024-02-21T07:22:25;99516.02;;;4.38;100.00
54872;BME280;43914;57.680;11.982;2024-02-21T07:24:58;99515.88;;;4.39;100.00
54872;BME280;43914;57.680;11.982;2024-02-21T07:27:23;99515.31;;;4.40;100.00
54872;BME280;43914;57.680;11.982;2024-02-21T07:29:53;99512.82;;;4.40;100.00
54872;BME280;43914;57.680;11.982;2024-02-21T07:32:19;99515.94;;;4.40;100.00
54872;BME280;43914;57.680;11.982;2024-02-21T07:34:44;99523.52;;;4.41;100.00
54872;BME280;43914;57.680;11.982;2024-02-21T07:37:11;99522.61;;;4.43;100.00
54872;BME280;43914;57.680;11.982;2024-02-21T07:39:36;99525.80;;;4.47;100.00
54872;BME280;43914;57.680;11.982;2024-02-21T07:42:05;99522.06;;;4.49;100.00
54872;BME280;43914;57.680;11.982;2024-02-21T07:44:31;99525.35;;;4.51;100.00
54872;BME280;43914;57.680;11.982;2024-02-21T07:46:57;99522.86;;;4.52;100.00
54872;BME280;43914;57.680;11.982;2024-02-21T07:49:23;99521.02;;;4.52;100.00
54872;BME280;43914;57.680;11.982;2024-02-21T07:51:48;99522.61;;;4.55;100.00
54872;BME280;43914;57.680;11.982;2024-02-21T07:54:15;99532.32;;;4.62;100.00
54872;BME280;43914;57.680;11.982;2024-02-21T07:56:40;99524.45;;;4.59;100.00
54872;BME280;43914;57.680;11.982;2024-02-21T07:59:06;99520.77;;;4.57;100.00
54872;BME280;43914;57.680;11.982;2024-02-21T08:01:33;99522.98;;;4.55;100.00
54872;BME280;43914;57.680;11.982;2024-02-21T08:03:58;99526.64;;;4.55;100.00
54872;BME280;43914;57.680;11.982;2024-02-21T08:06:24;99529.05;;;4.56;100.00
54872;BME280;43914;57.680;11.982;2024-02-21T08:08:50;99534.01;;;4.58;100.00
54872;BME280;43914;57.680;11.982;2024-02-21T08:11:15;99545.98;;;4.62;100.00
54872;BME280;43914;57.680;11.982;2024-02-21T08:13:41;99547.20;;;4.76;100.00
54872;BME280;43914;57.680;11.982;2024-02-21T08:16:06;99551.16;;;4.80;100.00
54872;BME280;43914;57.680;11.982;2024-02-21T08:18:31;99552.79;;;4.83;100.00
54872;BME280;43914;57.680;11.982;2024-02-21T08:20:59;99552.99;;;4.91;100.00
54872;BME280;43914;57.680;11.982;2024-02-21T08:23:24;99556.19;;;4.93;100.00
54872;BME280;43914;57.680;11.982;2024-02-21T08:25:50;99567.45;;;5.00;100.00
54872;BME280;43914;57.680;11.982;2024-02-21T08:28:15;99565.33;;;5.04;100.00
54872;BME280;43914;57.680;11.982;2024-02-21T08:30:42;99560.99;;;5.00;100.00
54872;BME280;43914;57.680;11.982;2024-02-21T08:33:13;99563.35;;;4.90;100.00
54872;BME280;43914;57.680;11.982;2024-02-21T08:35:41;99561.92;;;4.86;100.00
54872;BME280;43914;57.680;11.982;2024-02-21T08:38:06;99569.89;;;4.79;100.00
54872;BME280;43914;57.680;11.982;2024-02-21T08:40:32;99576.66;;;4.74;100.00
54872;BME280;43914;57.680;11.982;2024-02-21T08:43:00;99585.20;;;4.71;100.00
54872;BME280;43914;57.680;11.982;2024-02-21T08:45:26;99593.23;;;4.66;100.00
54872;BME280;43914;57.680;11.982;2024-02-21T08:47:51;99593.23;;;4.64;100.00
54872;BME280;43914;57.680;11.982;2024-02-21T08:50:17;99593.48;;;4.64;100.00
54872;BME280;43914;57.680;11.982;2024-02-21T08:52:42;99599.41;;;4.66;100.00
54872;BME280;43914;57.680;11.982;2024-02-21T08:55:08;99602.15;;;4.67;100.00
54872;BME280;43914;57.680;11.982;2024-02-21T08:57:34;99609.46;;;4.69;100.00
54872;BME280;43914;57.680;11.982;2024-02-21T09:00:05;99617.35;;;4.68;100.00
54872;BME280;43914;57.680;11.982;2024-02-21T09:02:42;99618.65;;;4.66;100.00
54872;BME280;43914;57.680;11.982;2024-02-21T09:05:10;99617.74;;;4.67;100.00
54872;BME280;43914;57.680;11.982;2024-02-21T09:07:36;99616.33;;;4.69;100.00
54872;BME280;43914;57.680;11.982;2024-02-21T09:10:02;99617.00;;;4.71;100.00
54872;BME280;43914;57.680;11.982;2024-02-21T09:12:28;99621.70;;;4.75;100.00
54872;BME280;43914;57.680;11.982;2024-02-21T09:14:54;99620.80;;;4.80;100.00
54872;BME280;43914;57.680;11.982;2024-02-21T09:17:20;99621.81;;;4.86;100.00
54872;BME280;43914;57.680;11.982;2024-02-21T09:19:50;99631.77;;;4.91;100.00
54872;BME280;43914;57.680;11.982;2024-02-21T09:22:16;99638.42;;;4.90;100.00
54872;BME280;43914;57.680;11.982;2024-02-21T09:24:41;99632.66;;;4.88;100.00
54872;BME280;43914;57.680;11.982;2024-02-21T09:27:07;99619.77;;;4.87;100.00
54872;BME280;43914;57.680;11.982;2024-02-21T09:29:32;99616.39;;;4.87;100.00
54872;BME280;43914;57.680;11.982;2024-02-21T09:32:01;99628.70;;;4.87;100.00
54872;BME280;43914;57.680;11.982;2024-02-21T09:34:28;99634.30;;;4.83;100.00
54872;BME280;43914;57.680;11.982;2024-02-21T09:36:54;99638.05;;;4.80;100.00
54872;BME280;43914;57.680;11.982;2024-02-21T09:39:19;99633.88;;;4.75;100.00
54872;BME280;43914;57.680;11.982;2024-02-21T09:41:50;99627.05;;;4.75;100.00
54872;BME280;43914;57.680;11.982;2024-02-21T09:44:21;99627.03;;;4.75;100.00
54872;BME280;43914;57.680;11.982;2024-02-21T09:46:56;99630.41;;;4.75;100.00
54872;BME280;43914;57.680;11.982;2024-02-21T09:49:33;99613.28;;;4.76;100.00
54872;BME280;43914;57.680;11.982;2024-02-21T09:52:04;99607.03;;;4.81;100.00
54872;BME280;43914;57.680;11.982;2024-02-21T09:54:30;99616.20;;;4.84;100.00
54872;BME280;43914;57.680;11.982;2024-02-21T09:57:00;99638.48;;;4.86;100.00
54872;BME280;43914;57.680;11.982;2024-02-21T09:59:27;99661.15;;;4.87;100.00
54872;BME280;43914;57.680;11.982;2024-02-21T10:01:53;99677.05;;;4.89;100.00
54872;BME280;43914;57.680;11.982;2024-02-21T10:04:20;99682.94;;;4.89;100.00
54872;BME280;43914;57.680;11.982;2024-02-21T10:06:45;99690.99;;;4.88;100.00
54872;BME280;43914;57.680;11.982;2024-02-21T10:09:24;99696.91;;;4.89;100.00
54872;BME280;43914;57.680;11.982;2024-02-21T10:11:53;99700.44;;;4.89;100.00
54872;BME280;43914;57.680;11.982;2024-02-21T10:14:20;99708.19;;;4.90;100.00
54872;BME280;43914;57.680;11.982;2024-02-21T10:16:56;99720.02;;;4.89;100.00
54872;BME280;43914;57.680;11.982;2024-02-21T10:19:25;99726.93;;;4.91;100.00
54872;BME280;43914;57.680;11.982;2024-02-21T10:22:04;99729.42;;;4.89;100.00
54872;BME280;43914;57.680;11.982;2024-02-21T10:24:31;99723.98;;;4.85;100.00
54872;BME280;43914;57.680;11.982;2024-02-21T10:27:07;99728.29;;;4.85;100.00
54872;BME280;43914;57.680;11.982;2024-02-21T10:29:49;99747.11;;;4.83;100.00
54872;BME280;43914;57.680;11.982;2024-02-21T10:32:15;99760.50;;;4.80;100.00
54872;BME280;43914;57.680;11.982;2024-02-21T10:34:41;99760.95;;;4.75;100.00
54872;BME280;43914;57.680;11.982;2024-02-21T10:37:09;99760.06;;;4.72;100.00
54872;BME280;43914;57.680;11.982;2024-02-21T10:39:39;99765.39;;;4.71;100.00
54872;BME280;43914;57.680;11.982;2024-02-21T10:42:05;99771.57;;;4.69;100.00
54872;BME280;43914;57.680;11.982;2024-02-21T10:44:32;99775.91;;;4.63;100.00
54872;BME280;43914;57.680;11.982;2024-02-21T10:46:58;99773.02;;;4.61;100.00
54872;BME280;43914;57.680;11.982;2024-02-21T10:49:27;99771.17;;;4.58;100.00
54872;BME280;43914;57.680;11.982;2024-02-21T10:57:03;99777.36;;;4.53;100.00
54872;BME280;43914;57.680;11.982;2024-02-21T10:59:30;99781.05;;;4.47;100.00
54872;BME280;43914;57.680;11.982;2024-02-21T11:01:57;99783.00;;;4.42;100.00
54872;BME280;43914;57.680;11.982;2024-02-21T11:04:25;99802.35;;;4.37;100.00
54872;BME280;43914;57.680;11.982;2024-02-21T11:06:51;99793.15;;;4.30;100.00
54872;BME280;43914;57.680;11.982;2024-02-21T11:09:17;99788.56;;;4.27;100.00
54872;BME280;43914;57.680;11.982;2024-02-21T11:11:46;99793.91;;;4.21;100.00
54872;BME280;43914;57.680;11.982;2024-02-21T11:14:18;99781.48;;;4.15;100.00
54872;BME280;43914;57.680;11.982;2024-02-21T11:16:43;99776.03;;;4.11;100.00
54872;BME280;43914;57.680;11.982;2024-02-21T11:19:29;99778.13;;;4.10;100.00
54872;BME280;43914;57.680;11.982;2024-02-21T11:21:57;99778.89;;;4.10;100.00
54872;BME280;43914;57.680;11.982;2024-02-21T11:24:32;99776.63;;;4.09;100.00
54872;BME280;43914;57.680;11.982;2024-02-21T11:27:14;99773.95;;;4.11;100.00
54872;BME280;43914;57.680;11.982;2024-02-21T11:30:00;99775.95;;;4.17;100.00
54872;BME280;43914;57.680;11.982;2024-02-21T11:32:30;99778.23;;;4.19;100.00
54872;BME280;43914;57.680;11.982;2024-02-21T11:37:27;99768.65;;;4.29;100.00
54872;BME280;43914;57.680;11.982;2024-02-21T11:39:56;99760.03;;;4.37;100.00
54872;BME280;43914;57.680;11.982;2024-02-21T11:42:25;99752.43;;;4.44;100.00
54872;BME280;43914;57.680;11.982;2024-02-21T11:44:50;99755.15;;;4.54;100.00
54872;BME280;43914;57.680;11.982;2024-02-21T11:47:16;99761.39;;;4.57;100.00
54872;BME280;43914;57.680;11.982;2024-02-21T11:49:46;99751.15;;;4.58;100.00
54872;BME280;43914;57.680;11.982;2024-02-21T11:52:14;99732.69;;;4.59;100.00
54872;BME280;43914;57.680;11.982;2024-02-21T11:54:44;99716.15;;;4.68;100.00
54872;BME280;43914;57.680;11.982;2024-02-21T11:57:10;99712.08;;;4.73;100.00
54872;BME280;43914;57.680;11.982;2024-02-21T11:59:39;99708.02;;;4.72;100.00
54872;BME280;43914;57.680;11.982;2024-02-21T12:02:05;99695.56;;;4.71;100.00
54872;BME280;43914;57.680;11.982;2024-02-21T12:04:32;99678.63;;;4.72;100.00
54872;BME280;43914;57.680;11.982;2024-02-21T12:06:58;99670.42;;;4.74;100.00
54872;BME280;43914;57.680;11.982;2024-02-21T12:09:25;99664.31;;;4.71;100.00
54872;BME280;43914;57.680;11.982;2024-02-21T12:12:04;99670.46;;;4.73;100.00
54872;BME280;43914;57.680;11.982;2024-02-21T12:14:32;99674.73;;;4.77;100.00
54872;BME280;43914;57.680;11.982;2024-02-21T12:16:59;99686.08;;;4.83;100.00
54872;BME280;43914;57.680;11.982;2024-02-21T12:19:26;99686.80;;;4.88;100.00
54872;BME280;43914;57.680;11.982;2024-02-21T12:21:51;99678.95;;;4.95;100.00
54872;BME280;43914;57.680;11.982;2024-02-21T12:24:21;99671.77;;;4.94;100.00
54872;BME280;43914;57.680;11.982;2024-02-21T12:26:51;99670.36;;;4.95;100.00
54872;BME280;43914;57.680;11.982;2024-02-21T12:29:20;99677.30;;;5.04;100.00
54872;BME280;43914;57.680;11.982;2024-02-21T12:31:47;99674.78;;;5.14;100.00
54872;BME280;43914;57.680;11.982;2024-02-21T12:34:13;99676.95;;;5.20;100.00
54872;BME280;43914;57.680;11.982;2024-02-21T12:36:44;99678.44;;;5.26;100.00
54872;BME280;43914;57.680;11.982;2024-02-21T12:39:10;99684.46;;;5.34;100.00
54872;BME280;43914;57.680;11.982;2024-02-21T12:41:37;99681.20;;;5.33;100.00
54872;BME280;43914;57.680;11.982;2024-02-21T12:44:07;99680.17;;;5.32;100.00
54872;BME280;43914;57.680;11.982;2024-02-21T12:46:35;99684.71;;;5.37;100.00
54872;BME280;43914;57.680;11.982;2024-02-21T12:49:02;99687.44;;;5.42;100.00
54872;BME280;43914;57.680;11.982;2024-02-21T12:51:29;99689.79;;;5.48;100.00
54872;BME280;43914;57.680;11.982;2024-02-21T12:53:55;99689.90;;;5.52;100.00
54872;BME280;43914;57.680;11.982;2024-02-21T12:56:20;99698.21;;;5.55;100.00